createdAt,value
2022-08-17T00:00:00.048Z,31.85
2022-08-17T00:03:28.761Z,34.23
2022-08-17T00:06:40.046Z,31.50
2022-08-17T00:09:46.200Z,34.18
2022-08-17T00:12:55.726Z,29.70
2022-08-17T00:19:08.783Z,28.52
2022-08-17T00:22:33.172Z,40.23
2022-08-17T00:25:27.050Z,40.45
2022-08-17T00:28:33.357Z,27.93
2022-08-17T00:31:39.319Z,34.45
2022-08-17T00:34:45.748Z,35.35
2022-08-17T00:37:51.831Z,36.28
2022-08-17T00:41:09.725Z,35.05
2022-08-17T00:44:19.565Z,27.20
2022-08-17T00:47:25.958Z,37.65
2022-08-17T00:50:33.100Z,30.70
2022-08-17T00:53:41.791Z,25.15
2022-08-17T00:56:54.220Z,35.20
2022-08-17T01:00:03.786Z,32.40
2022-08-17T01:03:38.744Z,34.00
2022-08-17T01:06:45.020Z,34.98
2022-08-17T01:09:51.091Z,41.45
2022-08-17T01:12:57.117Z,42.55
2022-08-17T01:16:09.144Z,35.45
2022-08-17T01:19:17.244Z,33.73
2022-08-17T01:22:33.360Z,39.25
2022-08-17T01:25:39.449Z,41.83
2022-08-17T01:28:53.410Z,29.27
2022-08-17T01:32:03.631Z,39.67
2022-08-17T01:35:08.797Z,36.55
2022-08-17T01:38:14.439Z,42.80
2022-08-17T01:41:24.250Z,30.55
2022-08-17T01:44:30.067Z,23.73
2022-08-17T01:47:36.069Z,19.67
2022-08-17T01:50:46.181Z,30.02
2022-08-17T01:53:55.045Z,19.55
2022-08-17T01:57:04.343Z,26.37
2022-08-17T02:00:09.664Z,21.15
2022-08-17T02:03:15.397Z,24.52
2022-08-17T02:06:27.874Z,15.88
2022-08-17T02:09:29.829Z,17.00
2022-08-17T02:12:38.790Z,20.02
2022-08-17T02:15:44.293Z,22.62
2022-08-17T02:18:49.654Z,20.92
2022-08-17T02:21:56.936Z,24.92
2022-08-17T02:25:03.261Z,22.32
2022-08-17T02:28:08.613Z,17.80
2022-08-17T02:31:20.954Z,22.20
2022-08-17T02:34:25.998Z,15.60
2022-08-17T02:37:31.495Z,14.65
2022-08-17T02:40:37.216Z,15.85
2022-08-17T02:43:42.326Z,18.23
2022-08-17T02:46:47.831Z,15.60
2022-08-17T02:49:56.132Z,14.65
2022-08-17T02:53:02.952Z,16.42
2022-08-17T02:56:10.255Z,17.80
2022-08-17T02:59:15.511Z,19.40
2022-08-17T03:02:25.204Z,16.60
2022-08-17T03:05:32.944Z,17.65
2022-08-17T03:08:38.272Z,16.90
2022-08-17T03:11:43.481Z,11.50
2022-08-17T03:14:50.520Z,12.05
2022-08-17T03:17:56.338Z,9.60
2022-08-17T03:21:01.789Z,16.37
2022-08-17T03:24:09.056Z,13.48
2022-08-17T03:27:14.888Z,16.05
2022-08-17T03:30:23.731Z,19.35
2022-08-17T03:33:29.861Z,14.10
2022-08-17T03:36:36.258Z,18.82
2022-08-17T03:39:42.800Z,16.97
2022-08-17T03:42:48.991Z,19.80
2022-08-17T03:46:34.435Z,16.55
2022-08-17T03:49:38.891Z,19.75
2022-08-17T03:53:02.272Z,12.85
2022-08-17T03:56:26.178Z,16.32
2022-08-17T03:59:34.898Z,17.60
2022-08-17T04:02:46.114Z,26.50
2022-08-17T04:08:56.338Z,32.78
2022-08-17T04:12:04.814Z,43.70
2022-08-17T04:15:10.713Z,45.92
2022-08-17T04:18:15.774Z,35.63
2022-08-17T04:21:22.632Z,28.30
2022-08-17T04:24:28.134Z,26.12
2022-08-17T04:27:33.770Z,17.52
2022-08-17T04:30:39.232Z,22.62
2022-08-17T04:33:44.524Z,23.92
2022-08-17T04:36:51.182Z,20.35
2022-08-17T04:40:04.145Z,15.95
2022-08-17T04:43:23.205Z,18.20
2022-08-17T04:46:33.558Z,18.30
2022-08-17T04:49:39.174Z,20.97
2022-08-17T04:52:45.614Z,20.10
2022-08-17T04:55:51.410Z,27.45
2022-08-17T04:59:03.135Z,20.02
2022-08-17T05:02:08.516Z,24.07
2022-08-17T05:05:14.015Z,28.98
2022-08-17T05:08:20.936Z,18.95
2022-08-17T05:11:28.530Z,36.63
2022-08-17T05:14:34.085Z,25.12
2022-08-17T05:17:39.939Z,24.25
2022-08-17T05:20:45.346Z,30.55
2022-08-17T05:23:54.835Z,28.12
2022-08-17T05:27:02.564Z,33.50
2022-08-17T05:30:05.182Z,22.73
2022-08-17T05:33:15.679Z,33.10
2022-08-17T05:36:38.025Z,31.97
2022-08-17T05:39:29.811Z,25.85
2022-08-17T05:42:35.542Z,26.95
2022-08-17T05:45:55.784Z,33.05
2022-08-17T05:48:56.488Z,28.47
2022-08-17T05:52:25.583Z,22.00
2022-08-17T05:55:54.346Z,33.02
2022-08-17T05:59:39.799Z,35.45
2022-08-17T06:03:03.748Z,34.20
2022-08-17T06:06:42.073Z,30.97
2022-08-17T06:10:06.869Z,27.73
2022-08-17T06:13:38.617Z,31.37
2022-08-17T06:16:47.875Z,41.48
2022-08-17T06:20:13.620Z,28.40
2022-08-17T06:23:22.684Z,31.65
2022-08-17T06:26:39.696Z,32.73
2022-08-17T06:30:13.513Z,28.25
2022-08-17T06:33:24.678Z,28.05
2022-08-17T06:36:54.669Z,26.02
2022-08-17T06:40:12.151Z,31.87
2022-08-17T06:43:49.927Z,40.67
2022-08-17T06:47:05.392Z,23.90
2022-08-17T06:50:38.081Z,28.50
2022-08-17T06:53:53.292Z,23.52
2022-08-17T06:57:22.672Z,26.23
2022-08-17T07:00:31.812Z,27.22
2022-08-17T07:04:06.694Z,19.23
2022-08-17T07:07:16.078Z,21.95
2022-08-17T07:10:21.869Z,28.45
2022-08-17T07:13:54.887Z,23.60
2022-08-17T07:17:04.814Z,25.85
2022-08-17T07:20:15.251Z,23.70
2022-08-17T07:23:36.561Z,20.60
2022-08-17T07:26:42.632Z,25.05
2022-08-17T07:29:54.167Z,22.25
2022-08-17T07:33:07.519Z,22.35
2022-08-17T07:36:16.056Z,23.07
2022-08-17T07:39:21.327Z,19.40
2022-08-17T07:42:26.873Z,21.62
2022-08-17T07:45:52.665Z,20.00
2022-08-17T07:49:02.138Z,16.15
2022-08-17T07:52:47.893Z,21.17
2022-08-17T07:55:42.450Z,23.15
2022-08-17T07:58:49.365Z,23.22
2022-08-17T08:01:57.378Z,19.10
2022-08-17T08:05:48.837Z,22.13
2022-08-17T08:08:45.597Z,17.87
2022-08-17T08:11:51.810Z,18.55
2022-08-17T08:14:59.896Z,16.10
2022-08-17T08:18:13.275Z,20.05
2022-08-17T08:21:53.733Z,20.37
2022-08-17T08:25:28.820Z,16.32
2022-08-17T08:28:55.038Z,21.85
2022-08-17T08:32:15.614Z,27.98
2022-08-17T08:35:45.087Z,15.58
2022-08-17T08:39:10.880Z,18.55
2022-08-17T08:42:30.117Z,12.93
2022-08-17T08:45:49.863Z,11.28
2022-08-17T08:49:45.191Z,20.65
2022-08-17T08:52:39.743Z,17.50
2022-08-17T08:56:09.094Z,21.23
2022-08-17T08:59:22.153Z,14.28
2022-08-17T09:03:12.408Z,12.65
2022-08-17T09:06:38.645Z,12.25
2022-08-17T09:09:49.226Z,13.78
2022-08-17T09:13:19.700Z,11.68
2022-08-17T09:16:35.819Z,14.87
2022-08-17T09:20:28.013Z,15.00
2022-08-17T09:23:37.220Z,14.40
2022-08-17T09:27:08.425Z,14.98
2022-08-17T09:30:19.358Z,18.32
2022-08-17T09:33:28.884Z,17.67
2022-08-17T09:36:39.238Z,14.38
2022-08-17T09:39:55.943Z,12.60
2022-08-17T09:43:41.275Z,14.93
2022-08-17T09:46:53.105Z,13.65
2022-08-17T09:50:07.370Z,13.03
2022-08-17T09:53:14.052Z,14.03
2022-08-17T09:57:18.184Z,18.62
2022-08-17T10:00:35.952Z,25.02
2022-08-17T10:04:02.587Z,14.53
2022-08-17T10:07:13.262Z,14.53
2022-08-17T10:10:32.476Z,16.45
2022-08-17T10:14:35.905Z,13.53
2022-08-17T10:17:25.831Z,17.60
2022-08-17T10:20:45.521Z,10.93
2022-08-17T10:24:13.333Z,10.85
2022-08-17T10:27:22.648Z,14.47
2022-08-17T10:30:27.540Z,13.70
2022-08-17T10:33:41.947Z,17.32
2022-08-17T10:37:03.219Z,13.38
2022-08-17T10:40:39.703Z,14.80
2022-08-17T10:44:40.272Z,15.72
2022-08-17T10:47:52.843Z,14.83
2022-08-17T10:51:14.245Z,35.38
2022-08-17T10:54:24.747Z,12.07
2022-08-17T10:57:56.355Z,15.72
2022-08-17T11:01:13.329Z,17.55
2022-08-17T11:05:03.449Z,22.82
2022-08-17T11:08:55.249Z,12.63
2022-08-17T11:12:24.647Z,14.23
2022-08-17T11:15:48.150Z,25.60
2022-08-17T11:19:01.414Z,19.67
2022-08-17T11:22:34.328Z,11.78
2022-08-17T11:25:57.275Z,15.40
2022-08-17T11:29:05.726Z,13.00
2022-08-17T11:32:21.959Z,9.33
2022-08-17T11:35:45.171Z,14.53
2022-08-17T11:38:57.736Z,25.43
2022-08-17T11:42:22.654Z,12.60
2022-08-17T11:46:08.924Z,12.65
2022-08-17T11:49:42.638Z,11.78
2022-08-17T11:52:55.379Z,12.75
2022-08-17T11:56:14.697Z,7.97
2022-08-17T11:59:48.818Z,10.60
2022-08-17T12:02:58.146Z,11.03
2022-08-17T12:06:04.271Z,8.70
2022-08-17T12:09:16.693Z,12.85
2022-08-17T12:12:36.737Z,9.10
2022-08-17T12:15:53.780Z,8.38
2022-08-17T12:19:13.294Z,8.05
2022-08-17T12:22:40.530Z,13.75
2022-08-17T12:26:04.004Z,8.13
2022-08-17T12:29:35.613Z,7.12
2022-08-17T12:32:34.112Z,8.93
2022-08-17T12:35:55.047Z,10.53
2022-08-17T12:39:21.233Z,8.00
2022-08-17T12:42:30.402Z,10.08
2022-08-17T12:45:47.646Z,10.10
2022-08-17T12:48:58.799Z,8.75
2022-08-17T12:52:01.606Z,11.55
2022-08-17T12:55:33.936Z,12.63
2022-08-17T12:58:47.746Z,9.55
2022-08-17T13:01:56.318Z,11.48
2022-08-17T13:05:03.421Z,10.15
2022-08-17T13:08:12.300Z,6.75
2022-08-17T13:11:21.330Z,9.90
2022-08-17T13:14:27.975Z,8.55
2022-08-17T13:17:42.795Z,10.65
2022-08-17T13:20:48.534Z,9.30
2022-08-17T13:23:54.539Z,9.23
2022-08-17T13:27:08.005Z,7.58
2022-08-17T13:30:17.154Z,7.95
2022-08-17T13:33:45.202Z,8.13
2022-08-17T13:36:41.681Z,7.00
2022-08-17T13:39:49.085Z,8.70
2022-08-17T13:43:06.329Z,7.83
2022-08-17T13:46:11.062Z,6.83
2022-08-17T13:49:19.269Z,9.75
2022-08-17T13:52:50.062Z,10.05
2022-08-17T13:55:53.832Z,8.98
2022-08-17T13:59:17.479Z,6.60
2022-08-17T14:02:25.999Z,8.38
2022-08-17T14:05:31.690Z,9.10
2022-08-17T14:08:38.551Z,6.60
2022-08-17T14:11:44.986Z,9.68
2022-08-17T14:14:51.467Z,6.60
2022-08-17T14:17:57.764Z,8.35
2022-08-17T14:21:04.163Z,11.12
2022-08-17T14:24:10.182Z,8.15
2022-08-17T14:27:17.431Z,10.98
2022-08-17T14:30:24.974Z,9.05
2022-08-17T14:33:31.817Z,11.03
2022-08-17T14:36:38.365Z,7.60
2022-08-17T14:39:45.415Z,7.40
2022-08-17T14:42:52.621Z,6.08
2022-08-17T14:45:58.620Z,5.00
2022-08-17T14:49:04.375Z,6.90
2022-08-17T14:52:09.987Z,10.43
2022-08-17T14:55:15.453Z,6.67
2022-08-17T14:58:21.285Z,5.42
2022-08-17T15:01:27.460Z,6.65
2022-08-17T15:04:33.356Z,6.55
2022-08-17T15:07:38.523Z,9.58
2022-08-17T15:10:44.405Z,6.25
2022-08-17T15:13:53.013Z,4.53
2022-08-17T15:16:57.531Z,11.55
2022-08-17T15:20:04.392Z,7.30
2022-08-17T15:23:10.352Z,4.60
2022-08-17T15:26:16.051Z,6.65
2022-08-17T15:29:21.456Z,5.83
2022-08-17T15:32:45.855Z,5.55
2022-08-17T15:35:49.592Z,12.15
2022-08-17T15:38:56.044Z,8.45
2022-08-17T15:42:02.265Z,5.40
2022-08-17T15:45:07.786Z,4.75
2022-08-17T15:48:14.189Z,4.58
2022-08-17T15:51:19.962Z,7.10
2022-08-17T15:54:31.783Z,5.47
2022-08-17T15:57:34.502Z,8.30
2022-08-17T16:00:53.081Z,6.55
2022-08-17T16:04:04.053Z,6.22
2022-08-17T16:06:57.134Z,9.43
2022-08-17T16:10:07.230Z,11.40
2022-08-17T16:13:17.517Z,12.30
2022-08-17T16:16:20.684Z,8.38
2022-08-17T16:19:26.329Z,10.82
2022-08-17T16:22:32.712Z,11.48
2022-08-17T16:25:53.483Z,13.30
2022-08-17T16:28:49.900Z,11.35
2022-08-17T16:31:56.140Z,11.57
2022-08-17T16:35:02.645Z,7.65
2022-08-17T16:38:09.389Z,16.52
2022-08-17T16:41:14.750Z,14.75
2022-08-17T16:44:21.035Z,13.75
2022-08-17T16:47:27.478Z,10.72
2022-08-17T16:50:35.444Z,8.78
2022-08-17T16:53:40.716Z,10.00
2022-08-17T16:56:46.053Z,11.55
2022-08-17T16:59:51.686Z,8.08
2022-08-17T17:03:03.478Z,12.23
2022-08-17T17:06:47.089Z,11.80
2022-08-17T17:09:55.185Z,21.90
2022-08-17T17:13:03.685Z,23.47
2022-08-17T17:16:34.466Z,24.25
2022-08-17T17:19:56.714Z,21.90
2022-08-17T17:23:06.216Z,12.45
2022-08-17T17:26:42.508Z,17.90
2022-08-17T17:30:10.854Z,18.92
2022-08-17T17:33:24.186Z,22.75
2022-08-17T17:36:44.218Z,16.67
2022-08-17T17:40:00.084Z,20.40
2022-08-17T17:43:37.255Z,15.63
2022-08-17T17:46:28.467Z,21.02
2022-08-17T17:49:33.195Z,15.90
2022-08-17T17:52:54.340Z,17.37
2022-08-17T17:56:39.838Z,19.62
2022-08-17T17:59:51.726Z,19.45
2022-08-17T18:03:25.944Z,16.05
2022-08-17T18:07:04.626Z,10.53
2022-08-17T18:10:31.912Z,11.22
2022-08-17T18:14:02.981Z,14.07
2022-08-17T18:17:13.267Z,11.35
2022-08-17T18:20:20.442Z,9.73
2022-08-17T18:23:28.824Z,14.23
2022-08-17T18:26:51.078Z,11.15
2022-08-17T18:29:59.471Z,11.78
2022-08-17T18:33:05.328Z,10.40
2022-08-17T18:36:11.043Z,9.73
2022-08-17T18:39:37.537Z,11.30
2022-08-17T18:42:45.255Z,13.78
2022-08-17T18:46:00.750Z,16.73
2022-08-17T18:49:16.874Z,12.00
2022-08-17T18:52:31.542Z,12.78
2022-08-17T18:55:39.662Z,14.75
2022-08-17T18:58:46.021Z,12.13
2022-08-17T19:02:32.532Z,11.75
2022-08-17T19:05:49.149Z,14.20
2022-08-17T19:08:56.668Z,12.93
2022-08-17T19:12:03.235Z,14.55
2022-08-17T19:15:09.906Z,12.30
2022-08-17T19:18:42.832Z,14.55
2022-08-17T19:22:00.292Z,16.60
2022-08-17T19:25:09.365Z,13.80
2022-08-17T19:28:22.781Z,16.73
2022-08-17T19:31:40.666Z,14.58
2022-08-17T19:34:51.029Z,15.40
2022-08-17T19:38:29.314Z,13.75
2022-08-17T19:41:51.735Z,12.28
2022-08-17T19:45:11.497Z,15.72
2022-08-17T19:51:30.220Z,16.70
2022-08-17T19:54:40.708Z,12.25
2022-08-17T19:58:12.269Z,13.20
2022-08-17T20:01:19.279Z,17.00
2022-08-17T20:04:49.662Z,17.05
2022-08-17T20:08:18.234Z,16.70
2022-08-17T20:11:41.587Z,13.65
2022-08-17T20:15:01.222Z,11.25
2022-08-17T20:18:06.712Z,15.05
2022-08-17T20:21:21.793Z,16.07
2022-08-17T20:24:48.353Z,13.68
2022-08-17T20:28:13.862Z,14.43
2022-08-17T20:31:57.792Z,16.93
2022-08-17T20:35:03.901Z,15.72
2022-08-17T20:38:20.369Z,19.02
2022-08-17T20:41:31.919Z,15.38
2022-08-17T20:44:50.332Z,14.28
2022-08-17T20:48:26.043Z,15.18
2022-08-17T20:51:12.754Z,19.62
2022-08-17T20:54:34.092Z,13.90
2022-08-17T20:57:54.160Z,20.12
2022-08-17T21:01:30.307Z,15.93
2022-08-17T21:05:09.663Z,21.05
2022-08-17T21:08:30.375Z,13.40
2022-08-17T21:12:02.522Z,16.42
2022-08-17T21:15:10.534Z,15.58
2022-08-17T21:18:27.320Z,15.13
2022-08-17T21:21:46.579Z,20.57
2022-08-17T21:24:58.794Z,19.25
2022-08-17T21:28:33.715Z,18.42
2022-08-17T21:31:56.491Z,16.23
2022-08-17T21:35:38.819Z,14.95
2022-08-17T21:38:53.391Z,14.83
2022-08-17T21:42:10.009Z,17.23
2022-08-17T21:45:31.747Z,14.00
2022-08-17T21:48:38.398Z,20.35
2022-08-17T21:51:44.085Z,18.35
2022-08-17T21:54:52.831Z,21.57
2022-08-17T21:58:14.125Z,18.35
2022-08-17T22:01:40.958Z,19.98
2022-08-17T22:04:52.729Z,17.87
2022-08-17T22:08:04.039Z,17.75
2022-08-17T22:11:17.166Z,18.17
2022-08-17T22:14:51.426Z,20.27
2022-08-17T22:17:53.578Z,20.72
2022-08-17T22:20:59.009Z,17.25
2022-08-17T22:24:20.345Z,17.37
2022-08-17T22:27:26.550Z,18.70
2022-08-17T22:30:36.052Z,21.97
2022-08-17T22:34:02.615Z,18.30
2022-08-17T22:37:36.122Z,17.73
2022-08-17T22:40:47.157Z,21.37
2022-08-17T22:43:52.428Z,20.55
2022-08-17T22:47:11.485Z,17.10
2022-08-17T22:50:17.528Z,16.25
2022-08-17T22:53:50.583Z,18.17
2022-08-17T22:57:29.551Z,18.90
2022-08-17T23:00:57.374Z,15.20
2022-08-17T23:04:19.094Z,16.05
2022-08-17T23:07:35.745Z,18.62
2022-08-17T23:10:44.276Z,17.75
2022-08-17T23:13:51.388Z,14.28
2022-08-17T23:17:00.648Z,15.32
2022-08-17T23:20:06.170Z,13.68
2022-08-17T23:23:12.784Z,14.70
2022-08-17T23:26:17.988Z,13.55
2022-08-17T23:29:23.967Z,19.12
2022-08-17T23:32:30.468Z,16.23
2022-08-17T23:35:39.032Z,14.05
2022-08-17T23:38:44.098Z,12.30
2022-08-17T23:41:54.687Z,15.50
2022-08-17T23:45:01.182Z,13.32
2022-08-17T23:48:07.398Z,17.98
2022-08-17T23:51:13.044Z,13.48
2022-08-17T23:54:34.335Z,14.40
2022-08-17T23:57:41.133Z,12.73
